sensor_id;sensor_type;location;lat;lon;timestamp;pressure;altitude;pressure_sealevel;temperature;humidity
22662;BME280;11497;52.222;21.246;2023-02-11T00:01:21;101709.88;;;2.76;87.71
22662;BME280;11497;52.222;21.246;2023-02-11T00:03:49;101710.03;;;2.84;87.43
22662;BME280;11497;52.222;21.246;2023-02-11T00:06:17;101708.13;;;2.75;87.54
22662;BME280;11497;52.222;21.246;2023-02-11T00:08:45;101701.25;;;2.76;87.70
22662;BME280;11497;52.222;21.246;2023-02-11T00:11:15;101700.63;;;2.87;87.39
22662;BME280;11497;52.222;21.246;2023-02-11T00:13:44;101703.69;;;2.68;87.71
22662;BME280;11497;52.222;21.246;2023-02-11T00:16:17;101702.81;;;2.67;87.71
22662;BME280;11497;52.222;21.246;2023-02-11T00:18:46;101697.03;;;2.81;87.64
22662;BME280;11497;52.222;21.246;2023-02-11T00:21:16;101673.53;;;2.68;87.58
22662;BME280;11497;52.222;21.246;2023-02-11T00:23:45;101679.63;;;2.72;87.67
22662;BME280;11497;52.222;21.246;2023-02-11T00:26:14;101682.00;;;2.60;87.64
22662;BME280;11497;52.222;21.246;2023-02-11T00:28:43;101669.13;;;2.63;87.95
22662;BME280;11497;52.222;21.246;2023-02-11T00:31:11;101672.53;;;2.62;87.57
22662;BME280;11497;52.222;21.246;2023-02-11T00:33:40;101667.34;;;2.60;87.65
22662;BME280;11497;52.222;21.246;2023-02-11T00:36:13;101671.03;;;2.73;87.94
22662;BME280;11497;52.222;21.246;2023-02-11T00:38:45;101661.41;;;2.64;87.33
22662;BME280;11497;52.222;21.246;2023-02-11T00:41:14;101658.75;;;2.60;87.04
22662;BME280;11497;52.222;21.246;2023-02-11T00:43:42;101657.09;;;2.65;87.00
22662;BME280;11497;52.222;21.246;2023-02-11T00:46:10;101658.03;;;2.68;87.43
22662;BME280;11497;52.222;21.246;2023-02-11T00:48:39;101655.34;;;2.64;86.73
22662;BME280;11497;52.222;21.246;2023-02-11T00:51:07;101642.31;;;2.56;86.67
22662;BME280;11497;52.222;21.246;2023-02-11T00:53:36;101627.69;;;2.57;86.53
22662;BME280;11497;52.222;21.246;2023-02-11T00:56:04;101618.22;;;2.60;86.88
22662;BME280;11497;52.222;21.246;2023-02-11T00:58:33;101602.16;;;2.75;86.39
22662;BME280;11497;52.222;21.246;2023-02-11T01:01:01;101596.19;;;2.79;86.34
22662;BME280;11497;52.222;21.246;2023-02-11T01:03:29;101579.56;;;2.65;85.95
22662;BME280;11497;52.222;21.246;2023-02-11T01:05:56;101583.78;;;2.61;85.78
22662;BME280;11497;52.222;21.246;2023-02-11T01:08:24;101573.63;;;2.71;85.42
22662;BME280;11497;52.222;21.246;2023-02-11T01:11:00;101581.09;;;2.54;85.79
22662;BME280;11497;52.222;21.246;2023-02-11T01:13:30;101570.69;;;2.51;85.63
22662;BME280;11497;52.222;21.246;2023-02-11T01:15:58;101558.78;;;2.59;85.57
22662;BME280;11497;52.222;21.246;2023-02-11T01:18:26;101555.44;;;2.66;85.09
22662;BME280;11497;52.222;21.246;2023-02-11T01:20:54;101542.50;;;2.64;85.00
22662;BME280;11497;52.222;21.246;2023-02-11T01:23:23;101532.03;;;2.55;84.88
22662;BME280;11497;52.222;21.246;2023-02-11T01:25:51;101525.94;;;2.52;85.27
22662;BME280;11497;52.222;21.246;2023-02-11T01:28:23;101518.97;;;2.48;85.43
22662;BME280;11497;52.222;21.246;2023-02-11T01:30:52;101514.53;;;2.41;85.25
22662;BME280;11497;52.222;21.246;2023-02-11T01:33:21;101509.38;;;2.42;85.24
22662;BME280;11497;52.222;21.246;2023-02-11T01:35:49;101501.72;;;2.47;85.56
22662;BME280;11497;52.222;21.246;2023-02-11T01:38:23;101493.97;;;2.47;85.11
22662;BME280;11497;52.222;21.246;2023-02-11T01:41:04;101496.50;;;2.44;85.41
22662;BME280;11497;52.222;21.246;2023-02-11T01:43:42;101503.56;;;2.54;85.06
22662;BME280;11497;52.222;21.246;2023-02-11T01:46:30;101497.47;;;2.50;84.77
22662;BME280;11497;52.222;21.246;2023-02-11T01:49:09;101510.41;;;2.52;84.74
22662;BME280;11497;52.222;21.246;2023-02-11T01:51:47;101508.63;;;2.48;84.94
22662;BME280;11497;52.222;21.246;2023-02-11T01:54:20;101508.69;;;2.51;84.74
22662;BME280;11497;52.222;21.246;2023-02-11T01:57:07;101515.66;;;2.55;84.68
22662;BME280;11497;52.222;21.246;2023-02-11T02:02:41;101488.16;;;2.60;84.47
22662;BME280;11497;52.222;21.246;2023-02-11T02:08:06;101476.13;;;2.63;84.56
22662;BME280;11497;52.222;21.246;2023-02-11T02:10:39;101467.56;;;2.66;83.93
22662;BME280;11497;52.222;21.246;2023-02-11T02:13:08;101460.53;;;2.56;83.42
22662;BME280;11497;52.222;21.246;2023-02-11T02:15:39;101453.56;;;2.52;84.01
22662;BME280;11497;52.222;21.246;2023-02-11T02:23:26;101427.91;;;2.64;83.49
22662;BME280;11497;52.222;21.246;2023-02-11T02:26:13;101422.69;;;2.61;83.68
22662;BME280;11497;52.222;21.246;2023-02-11T02:34:22;101408.06;;;2.63;82.92
22662;BME280;11497;52.222;21.246;2023-02-11T02:37:17;101403.84;;;2.68;82.94
22662;BME280;11497;52.222;21.246;2023-02-11T02:39:47;101410.69;;;2.66;82.59
22662;BME280;11497;52.222;21.246;2023-02-11T02:42:17;101404.72;;;2.70;82.59
22662;BME280;11497;52.222;21.246;2023-02-11T02:47:01;101378.00;;;2.68;82.37
22662;BME280;11497;52.222;21.246;2023-02-11T02:49:29;101377.00;;;2.58;82.23
22662;BME280;11497;52.222;21.246;2023-02-11T02:52:06;101379.56;;;2.57;82.38
22662;BME280;11497;52.222;21.246;2023-02-11T02:55:02;101383.00;;;2.56;82.45
22662;BME280;11497;52.222;21.246;2023-02-11T02:58:00;101374.50;;;2.66;82.29
22662;BME280;11497;52.222;21.246;2023-02-11T03:09:08;101372.72;;;2.59;82.15
22662;BME280;11497;52.222;21.246;2023-02-11T03:11:39;101378.84;;;2.67;82.51
22662;BME280;11497;52.222;21.246;2023-02-11T03:14:10;101371.22;;;2.76;82.08
22662;BME280;11497;52.222;21.246;2023-02-11T03:16:39;101369.47;;;2.75;81.96
22662;BME280;11497;52.222;21.246;2023-02-11T03:19:21;101370.22;;;2.66;81.73
22662;BME280;11497;52.222;21.246;2023-02-11T03:21:51;101356.50;;;2.72;81.63
22662;BME280;11497;52.222;21.246;2023-02-11T03:24:37;101334.91;;;2.67;81.47
22662;BME280;11497;52.222;21.246;2023-02-11T03:29:54;101326.38;;;2.74;81.58
22662;BME280;11497;52.222;21.246;2023-02-11T03:38:01;101328.16;;;2.78;81.20
22662;BME280;11497;52.222;21.246;2023-02-11T03:40:30;101322.91;;;2.72;80.48
22662;BME280;11497;52.222;21.246;2023-02-11T03:45:58;101302.19;;;2.69;80.17
22662;BME280;11497;52.222;21.246;2023-02-11T03:48:39;101295.13;;;2.56;80.44
22662;BME280;11497;52.222;21.246;2023-02-11T03:51:09;101296.88;;;2.57;80.40
22662;BME280;11497;52.222;21.246;2023-02-11T03:53:41;101287.38;;;2.56;80.57
22662;BME280;11497;52.222;21.246;2023-02-11T03:56:15;101286.66;;;2.67;80.14
22662;BME280;11497;52.222;21.246;2023-02-11T03:58:46;101275.44;;;2.65;80.20
22662;BME280;11497;52.222;21.246;2023-02-11T04:01:14;101269.34;;;2.62;79.95
22662;BME280;11497;52.222;21.246;2023-02-11T04:03:43;101278.84;;;2.60;79.87
22662;BME280;11497;52.222;21.246;2023-02-11T04:06:10;101263.31;;;2.60;79.33
22662;BME280;11497;52.222;21.246;2023-02-11T04:08:38;101249.53;;;2.62;79.49
22662;BME280;11497;52.222;21.246;2023-02-11T04:11:06;101244.34;;;2.58;79.40
22662;BME280;11497;52.222;21.246;2023-02-11T04:13:34;101233.16;;;2.59;79.54
22662;BME280;11497;52.222;21.246;2023-02-11T04:16:01;101224.41;;;2.49;79.61
22662;BME280;11497;52.222;21.246;2023-02-11T04:18:31;101222.75;;;2.53;79.30
22662;BME280;11497;52.222;21.246;2023-02-11T04:20:59;101220.97;;;2.49;79.12
22662;BME280;11497;52.222;21.246;2023-02-11T04:23:27;101218.34;;;2.47;79.05
22662;BME280;11497;52.222;21.246;2023-02-11T04:25:55;101226.13;;;2.49;79.30
22662;BME280;11497;52.222;21.246;2023-02-11T04:28:23;101228.59;;;2.40;78.92
22662;BME280;11497;52.222;21.246;2023-02-11T04:30:51;101223.47;;;2.43;79.19
22662;BME280;11497;52.222;21.246;2023-02-11T04:33:19;101214.06;;;2.48;79.10
22662;BME280;11497;52.222;21.246;2023-02-11T04:35:46;101209.69;;;2.42;78.65
22662;BME280;11497;52.222;21.246;2023-02-11T04:38:14;101205.28;;;2.37;78.37
22662;BME280;11497;52.222;21.246;2023-02-11T04:40:42;101206.34;;;2.51;78.75
22662;BME280;11497;52.222;21.246;2023-02-11T04:43:10;101209.69;;;2.44;78.04
22662;BME280;11497;52.222;21.246;2023-02-11T04:45:37;101194.78;;;2.24;78.52
22662;BME280;11497;52.222;21.246;2023-02-11T04:48:05;101184.41;;;2.21;78.74
22662;BME280;11497;52.222;21.246;2023-02-11T04:50:33;101176.88;;;2.37;78.54
22662;BME280;11497;52.222;21.246;2023-02-11T04:53:01;101172.47;;;2.29;78.09
22662;BME280;11497;52.222;21.246;2023-02-11T04:55:28;101166.38;;;2.24;78.34
22662;BME280;11497;52.222;21.246;2023-02-11T04:57:56;101149.22;;;2.28;78.13
22662;BME280;11497;52.222;21.246;2023-02-11T05:00:24;101144.84;;;2.22;78.18
22662;BME280;11497;52.222;21.246;2023-02-11T05:02:52;101144.84;;;2.22;78.23
22662;BME280;11497;52.222;21.246;2023-02-11T05:05:19;101137.84;;;2.12;78.20
22662;BME280;11497;52.222;21.246;2023-02-11T05:07:47;101129.88;;;1.97;78.08
22662;BME280;11497;52.222;21.246;2023-02-11T05:10:15;101146.03;;;1.84;78.43
22662;BME280;11497;52.222;21.246;2023-02-11T05:12:43;101154.69;;;1.86;79.01
22662;BME280;11497;52.222;21.246;2023-02-11T05:15:10;101144.25;;;1.80;79.15
22662;BME280;11497;52.222;21.246;2023-02-11T05:17:38;101140.78;;;1.78;79.24
22662;BME280;11497;52.222;21.246;2023-02-11T05:20:06;101127.88;;;1.78;79.51
22662;BME280;11497;52.222;21.246;2023-02-11T05:22:34;101115.94;;;1.84;79.53
22662;BME280;11497;52.222;21.246;2023-02-11T05:25:02;101099.44;;;1.75;79.74
22662;BME280;11497;52.222;21.246;2023-02-11T05:27:30;101093.53;;;1.82;80.05
22662;BME280;11497;52.222;21.246;2023-02-11T05:29:57;101090.25;;;1.93;79.66
22662;BME280;11497;52.222;21.246;2023-02-11T05:32:25;101091.34;;;2.11;79.21
22662;BME280;11497;52.222;21.246;2023-02-11T05:34:53;101096.53;;;2.12;78.91
22662;BME280;11497;52.222;21.246;2023-02-11T05:37:20;101091.31;;;2.09;78.50
22662;BME280;11497;52.222;21.246;2023-02-11T05:39:48;101079.31;;;2.13;78.71
22662;BME280;11497;52.222;21.246;2023-02-11T05:42:16;101080.22;;;2.19;78.52
22662;BME280;11497;52.222;21.246;2023-02-11T05:44:44;101088.13;;;2.31;78.31
22662;BME280;11497;52.222;21.246;2023-02-11T05:47:12;101088.13;;;2.31;77.70
22662;BME280;11497;52.222;21.246;2023-02-11T05:49:39;101092.47;;;2.34;77.57
22662;BME280;11497;52.222;21.246;2023-02-11T05:52:07;101086.41;;;2.30;77.14
22662;BME280;11497;52.222;21.246;2023-02-11T05:54:35;101077.91;;;2.41;77.42
22662;BME280;11497;52.222;21.246;2023-02-11T05:57:03;101067.59;;;2.44;77.23
22662;BME280;11497;52.222;21.246;2023-02-11T05:59:31;101062.25;;;2.28;77.17
22662;BME280;11497;52.222;21.246;2023-02-11T06:01:59;101065.81;;;2.37;76.86
22662;BME280;11497;52.222;21.246;2023-02-11T06:04:27;101063.28;;;2.41;77.19
22662;BME280;11497;52.222;21.246;2023-02-11T06:06:55;101060.75;;;2.47;76.67
22662;BME280;11497;52.222;21.246;2023-02-11T06:09:23;101056.59;;;2.63;76.09
22662;BME280;11497;52.222;21.246;2023-02-11T06:11:51;101056.56;;;2.61;75.96
22662;BME280;11497;52.222;21.246;2023-02-11T06:14:19;101054.00;;;2.63;75.67
22662;BME280;11497;52.222;21.246;2023-02-11T06:16:47;101068.66;;;2.65;75.61
22662;BME280;11497;52.222;21.246;2023-02-11T06:19:14;101064.34;;;2.63;75.64
22662;BME280;11497;52.222;21.246;2023-02-11T06:21:42;101052.28;;;2.65;75.32
22662;BME280;11497;52.222;21.246;2023-02-11T06:24:11;101059.28;;;2.75;75.29
22662;BME280;11497;52.222;21.246;2023-02-11T06:26:39;101055.00;;;2.77;75.23
22662;BME280;11497;52.222;21.246;2023-02-11T06:29:07;101029.16;;;2.77;74.79
22662;BME280;11497;52.222;21.246;2023-02-11T06:31:37;101037.03;;;2.92;74.17
22662;BME280;11497;52.222;21.246;2023-02-11T06:34:07;101034.38;;;2.85;74.45
22662;BME280;11497;52.222;21.246;2023-02-11T06:36:35;101031.84;;;2.89;74.37
22662;BME280;11497;52.222;21.246;2023-02-11T06:39:05;101021.59;;;3.02;74.13
22662;BME280;11497;52.222;21.246;2023-02-11T06:41:33;101016.38;;;2.92;73.61
22662;BME280;11497;52.222;21.246;2023-02-11T06:44:01;101010.34;;;2.96;73.48
22662;BME280;11497;52.222;21.246;2023-02-11T06:46:28;101010.34;;;2.96;73.61
22662;BME280;11497;52.222;21.246;2023-02-11T06:48:56;100995.75;;;3.02;73.80
22662;BME280;11497;52.222;21.246;2023-02-11T06:51:24;101013.88;;;3.03;73.37
22662;BME280;11497;52.222;21.246;2023-02-11T06:53:52;101013.09;;;3.21;73.48
22662;BME280;11497;52.222;21.246;2023-02-11T06:56:21;101000.97;;;3.11;73.34
22662;BME280;11497;52.222;21.246;2023-02-11T06:58:53;101005.38;;;3.25;72.85
22662;BME280;11497;52.222;21.246;2023-02-11T07:01:26;100995.94;;;3.35;72.46
22662;BME280;11497;52.222;21.246;2023-02-11T07:03:54;100999.34;;;3.25;72.68
22662;BME280;11497;52.222;21.246;2023-02-11T07:06:24;100993.38;;;3.38;72.46
22662;BME280;11497;52.222;21.246;2023-02-11T07:08:54;100983.94;;;3.52;71.78
22662;BME280;11497;52.222;21.246;2023-02-11T07:11:25;100995.16;;;3.44;72.25
22662;BME280;11497;52.222;21.246;2023-02-11T07:13:58;101000.31;;;3.45;72.11
22662;BME280;11497;52.222;21.246;2023-02-11T07:16:26;101002.00;;;3.37;71.62
22662;BME280;11497;52.222;21.246;2023-02-11T07:18:54;101003.69;;;3.32;71.39
22662;BME280;11497;52.222;21.246;2023-02-11T07:21:22;100996.81;;;3.34;71.81
22662;BME280;11497;52.222;21.246;2023-02-11T07:23:50;100988.19;;;3.37;71.67
22662;BME280;11497;52.222;21.246;2023-02-11T07:26:20;100980.41;;;3.32;71.98
22662;BME280;11497;52.222;21.246;2023-02-11T07:28:55;100976.91;;;3.25;71.92
22662;BME280;11497;52.222;21.246;2023-02-11T07:31:25;100980.34;;;3.23;72.25
22662;BME280;11497;52.222;21.246;2023-02-11T07:33:55;100994.22;;;3.34;72.51
22662;BME280;11497;52.222;21.246;2023-02-11T07:36:24;100988.94;;;3.16;72.44
22662;BME280;11497;52.222;21.246;2023-02-11T07:38:52;100994.09;;;3.16;73.20
22662;BME280;11497;52.222;21.246;2023-02-11T07:41:22;100985.56;;;3.29;73.73
22662;BME280;11497;52.222;21.246;2023-02-11T07:43:50;100983.75;;;3.16;74.29
22662;BME280;11497;52.222;21.246;2023-02-11T07:46:23;100983.78;;;3.22;74.41
22662;BME280;11497;52.222;21.246;2023-02-11T07:48:51;100971.72;;;3.24;74.83
22662;BME280;11497;52.222;21.246;2023-02-11T07:51:26;100985.47;;;3.14;75.05
22662;BME280;11497;52.222;21.246;2023-02-11T07:53:54;100969.88;;;3.05;75.52
22662;BME280;11497;52.222;21.246;2023-02-11T07:56:23;100970.78;;;3.10;76.57
22662;BME280;11497;52.222;21.246;2023-02-11T07:58:51;100971.69;;;3.15;76.41
22662;BME280;11497;52.222;21.246;2023-02-11T08:01:22;100964.69;;;2.98;77.22
22662;BME280;11497;52.222;21.246;2023-02-11T08:03:52;100967.28;;;2.97;77.30
22662;BME280;11497;52.222;21.246;2023-02-11T08:06:23;100966.38;;;2.93;78.06
22662;BME280;11497;52.222;21.246;2023-02-11T08:08:50;100973.19;;;2.82;78.80
22662;BME280;11497;52.222;21.246;2023-02-11T08:11:22;100961.91;;;2.74;79.51
22662;BME280;11497;52.222;21.246;2023-02-11T08:13:50;100962.91;;;2.91;80.74
22662;BME280;11497;52.222;21.246;2023-02-11T08:16:24;100959.44;;;2.89;80.98
22662;BME280;11497;52.222;21.246;2023-02-11T08:18:52;100952.59;;;2.94;81.29
22662;BME280;11497;52.222;21.246;2023-02-11T08:21:20;100952.53;;;2.85;82.01
22662;BME280;11497;52.222;21.246;2023-02-11T08:23:48;100966.31;;;2.84;83.17
22662;BME280;11497;52.222;21.246;2023-02-11T08:26:19;100944.69;;;2.75;84.30
22662;BME280;11497;52.222;21.246;2023-02-11T08:28:48;100950.66;;;2.66;85.86
22662;BME280;11497;52.222;21.246;2023-02-11T08:31:20;100954.94;;;2.64;86.48
22662;BME280;11497;52.222;21.246;2023-02-11T08:33:48;100942.03;;;2.67;87.63
22662;BME280;11497;52.222;21.246;2023-02-11T08:36:22;100935.97;;;2.57;88.24
22662;BME280;11497;52.222;21.246;2023-02-11T08:38:50;100932.41;;;2.45;88.86
22662;BME280;11497;52.222;21.246;2023-02-11T08:41:18;100940.25;;;2.54;89.66
22662;BME280;11497;52.222;21.246;2023-02-11T08:43:46;100938.44;;;2.44;90.13
22662;BME280;11497;52.222;21.246;2023-02-11T08:46:16;100936.63;;;2.37;90.77
22662;BME280;11497;52.222;21.246;2023-02-11T08:48:45;100929.69;;;2.29;91.73
22662;BME280;11497;52.222;21.246;2023-02-11T08:51:19;100919.38;;;2.32;92.14
22662;BME280;11497;52.222;21.246;2023-02-11T08:53:48;100912.53;;;2.38;92.60
22662;BME280;11497;52.222;21.246;2023-02-11T08:56:18;100909.13;;;2.40;92.23
22662;BME280;11497;52.222;21.246;2023-02-11T08:58:46;100904.72;;;2.28;92.92
22662;BME280;11497;52.222;21.246;2023-02-11T09:01:17;100904.03;;;2.48;93.32
22662;BME280;11497;52.222;21.246;2023-02-11T09:03:48;100886.88;;;2.59;92.99
22662;BME280;11497;52.222;21.246;2023-02-11T09:06:16;100876.59;;;2.68;92.82
22662;BME280;11497;52.222;21.246;2023-02-11T09:08:47;100880.00;;;2.65;92.90
22662;BME280;11497;52.222;21.246;2023-02-11T09:11:17;100881.78;;;2.71;92.70
22662;BME280;11497;52.222;21.246;2023-02-11T09:13:46;100879.22;;;2.76;92.95
22662;BME280;11497;52.222;21.246;2023-02-11T09:16:20;100864.66;;;2.88;93.01
22662;BME280;11497;52.222;21.246;2023-02-11T09:18:48;100860.28;;;2.80;92.40
22662;BME280;11497;52.222;21.246;2023-02-11T09:21:17;100859.50;;;2.91;92.39
22662;BME280;11497;52.222;21.246;2023-02-11T09:23:46;100861.28;;;2.98;92.02
22662;BME280;11497;52.222;21.246;2023-02-11T09:26:20;100866.38;;;2.89;91.76
22662;BME280;11497;52.222;21.246;2023-02-11T09:28:48;100867.22;;;2.84;91.78
22662;BME280;11497;52.222;21.246;2023-02-11T09:31:18;100863.88;;;3.02;92.03
22662;BME280;11497;52.222;21.246;2023-02-11T09:33:48;100869.03;;;2.98;91.31
22662;BME280;11497;52.222;21.246;2023-02-11T09:36:19;100866.44;;;3.05;91.25
22662;BME280;11497;52.222;21.246;2023-02-11T09:38:48;100874.22;;;3.02;91.20
22662;BME280;11497;52.222;21.246;2023-02-11T09:41:26;100876.84;;;3.14;91.20
22662;BME280;11497;52.222;21.246;2023-02-11T09:44:01;100876.84;;;3.17;90.98
22662;BME280;11497;52.222;21.246;2023-02-11T09:46:39;100894.91;;;3.03;91.39
22662;BME280;11497;52.222;21.246;2023-02-11T09:49:17;100884.63;;;3.21;91.15
22662;BME280;11497;52.222;21.246;2023-02-11T09:51:54;100881.97;;;3.02;91.08
22662;BME280;11497;52.222;21.246;2023-02-11T09:54:33;100891.50;;;3.18;90.85
22662;BME280;11497;52.222;21.246;2023-02-11T09:57:02;100886.28;;;2.99;91.78
22662;BME280;11497;52.222;21.246;2023-02-11T09:59:30;100876.81;;;3.08;92.62
22662;BME280;11497;52.222;21.246;2023-02-11T10:02:15;100863.88;;;3.11;93.35
22662;BME280;11497;52.222;21.246;2023-02-11T10:07:41;100840.66;;;3.20;95.40
22662;BME280;11497;52.222;21.246;2023-02-11T10:10:29;100838.00;;;3.08;95.72
22662;BME280;11497;52.222;21.246;2023-02-11T10:16:33;100849.22;;;3.10;97.13
22662;BME280;11497;52.222;21.246;2023-02-11T10:18:58;100859.66;;;3.25;97.70
22662;BME280;11497;52.222;21.246;2023-02-11T10:22:09;100858.78;;;3.26;98.12
22662;BME280;11497;52.222;21.246;2023-02-11T10:24:40;100832.88;;;3.17;98.16
22662;BME280;11497;52.222;21.246;2023-02-11T10:27:18;100832.03;;;3.18;98.24
22662;BME280;11497;52.222;21.246;2023-02-11T10:29:53;100813.91;;;3.15;98.79
22662;BME280;11497;52.222;21.246;2023-02-11T10:32:30;100818.22;;;3.16;98.70
22662;BME280;11497;52.222;21.246;2023-02-11T10:35:03;100800.94;;;3.09;98.93
22662;BME280;11497;52.222;21.246;2023-02-11T10:37:36;100797.53;;;3.19;99.48
22662;BME280;11497;52.222;21.246;2023-02-11T10:40:11;100807.88;;;3.16;99.38
22662;BME280;11497;52.222;21.246;2023-02-11T10:42:42;100793.19;;;3.06;99.42
22662;BME280;11497;52.222;21.246;2023-02-11T10:45:29;100800.19;;;3.32;99.69
22662;BME280;11497;52.222;21.246;2023-02-11T10:48:00;100807.03;;;3.24;99.88
22662;BME280;11497;52.222;21.246;2023-02-11T10:50:30;100795.84;;;3.24;100.00
22662;BME280;11497;52.222;21.246;2023-02-11T10:53:20;100785.50;;;3.30;99.85
22662;BME280;11497;52.222;21.246;2023-02-11T10:55:55;100776.00;;;3.26;99.17
22662;BME280;11497;52.222;21.246;2023-02-11T10:58:52;100768.22;;;3.14;99.54
22662;BME280;11497;52.222;21.246;2023-02-11T11:01:21;100756.19;;;3.28;99.75
22662;BME280;11497;52.222;21.246;2023-02-11T11:03:52;100752.69;;;3.08;99.64
22662;BME280;11497;52.222;21.246;2023-02-11T11:06:31;100773.34;;;3.05;99.69
22662;BME280;11497;52.222;21.246;2023-02-11T11:08:59;100762.19;;;3.15;99.98
22662;BME280;11497;52.222;21.246;2023-02-11T11:11:27;100762.22;;;3.24;100.00
22662;BME280;11497;52.222;21.246;2023-02-11T11:14:00;100766.50;;;3.19;99.91
22662;BME280;11497;52.222;21.246;2023-02-11T11:16:34;100770.00;;;3.30;100.00
22662;BME280;11497;52.222;21.246;2023-02-11T11:21:41;100773.47;;;3.44;99.69
22662;BME280;11497;52.222;21.246;2023-02-11T11:26:52;100781.16;;;3.14;99.56
22662;BME280;11497;52.222;21.246;2023-02-11T11:32:02;100794.16;;;3.35;99.76
22662;BME280;11497;52.222;21.246;2023-02-11T11:34:34;100807.09;;;3.40;99.80
22662;BME280;11497;52.222;21.246;2023-02-11T11:37:20;100799.28;;;3.23;99.69
22662;BME280;11497;52.222;21.246;2023-02-11T11:39:59;100786.38;;;3.32;100.00
22662;BME280;11497;52.222;21.246;2023-02-11T11:42:31;100777.72;;;3.16;100.00
22662;BME280;11497;52.222;21.246;2023-02-11T11:48:12;100775.19;;;3.39;100.00
22662;BME280;11497;52.222;21.246;2023-02-11T11:50:49;100771.75;;;3.40;100.00
22662;BME280;11497;52.222;21.246;2023-02-11T11:53:47;100768.28;;;3.41;100.00
22662;BME280;11497;52.222;21.246;2023-02-11T11:56:26;100751.03;;;3.31;100.00
22662;BME280;11497;52.222;21.246;2023-02-11T11:58:54;100742.38;;;3.24;100.00
22662;BME280;11497;52.222;21.246;2023-02-11T12:01:48;100734.63;;;3.23;100.00
22662;BME280;11497;52.222;21.246;2023-02-11T12:07:05;100735.50;;;3.37;100.00
22662;BME280;11497;52.222;21.246;2023-02-11T12:15:35;100745.00;;;3.43;100.00
22662;BME280;11497;52.222;21.246;2023-02-11T12:23:34;100738.09;;;3.51;100.00
22662;BME280;11497;52.222;21.246;2023-02-11T12:26:18;100738.09;;;3.55;100.00
22662;BME280;11497;52.222;21.246;2023-02-11T12:29:16;100742.41;;;3.56;100.00
22662;BME280;11497;52.222;21.246;2023-02-11T12:34:31;100741.56;;;3.57;100.00
22662;BME280;11497;52.222;21.246;2023-02-11T12:39:49;100735.50;;;3.58;100.00
22662;BME280;11497;52.222;21.246;2023-02-11T12:49:13;100727.75;;;3.71;100.00
22662;BME280;11497;52.222;21.246;2023-02-11T12:54:58;100718.28;;;3.73;100.00
22662;BME280;11497;52.222;21.246;2023-02-11T12:57:31;100714.81;;;3.67;100.00
22662;BME280;11497;52.222;21.246;2023-02-11T13:00:15;100699.28;;;3.83;100.00
22662;BME280;11497;52.222;21.246;2023-02-11T13:08:20;100713.97;;;3.88;100.00
22662;BME280;11497;52.222;21.246;2023-02-11T13:11:01;100711.38;;;3.81;100.00
22662;BME280;11497;52.222;21.246;2023-02-11T13:13:51;100713.09;;;3.85;100.00
22662;BME280;11497;52.222;21.246;2023-02-11T13:22:04;100702.69;;;3.92;100.00
22662;BME280;11497;52.222;21.246;2023-02-11T13:24:49;100693.25;;;3.88;100.00
22662;BME280;11497;52.222;21.246;2023-02-11T13:35:31;100704.44;;;3.92;100.00
22662;BME280;11497;52.222;21.246;2023-02-11T13:38:01;100701.84;;;3.92;100.00
22662;BME280;11497;52.222;21.246;2023-02-11T13:40:36;100697.53;;;3.97;100.00
22662;BME280;11497;52.222;21.246;2023-02-11T13:43:06;100699.22;;;4.16;100.00
22662;BME280;11497;52.222;21.246;2023-02-11T13:45:48;100694.06;;;4.04;100.00
22662;BME280;11497;52.222;21.246;2023-02-11T13:48:23;100700.97;;;4.00;100.00
22662;BME280;11497;52.222;21.246;2023-02-11T13:50:55;100697.50;;;4.06;100.00
22662;BME280;11497;52.222;21.246;2023-02-11T13:53:23;100694.03;;;4.16;100.00
22662;BME280;11497;52.222;21.246;2023-02-11T13:56:04;100695.78;;;4.11;100.00
22662;BME280;11497;52.222;21.246;2023-02-11T13:58:37;100695.78;;;4.02;100.00
22662;BME280;11497;52.222;21.246;2023-02-11T14:04:22;100700.97;;;4.05;100.00
22662;BME280;11497;52.222;21.246;2023-02-11T14:07:30;100696.66;;;4.06;100.00
22662;BME280;11497;52.222;21.246;2023-02-11T14:13:24;100693.19;;;4.07;100.00
22662;BME280;11497;52.222;21.246;2023-02-11T14:16:06;100712.19;;;3.96;100.00
22662;BME280;11497;52.222;21.246;2023-02-11T14:23:40;100708.72;;;4.07;100.00
22662;BME280;11497;52.222;21.246;2023-02-11T14:29:02;100709.59;;;4.13;100.00
22662;BME280;11497;52.222;21.246;2023-02-11T14:31:44;100699.22;;;4.19;100.00
22662;BME280;11497;52.222;21.246;2023-02-11T14:42:44;100739.81;;;4.16;100.00
22662;BME280;11497;52.222;21.246;2023-02-11T14:45:18;100735.50;;;4.16;100.00
22662;BME280;11497;52.222;21.246;2023-02-11T14:48:02;100735.50;;;4.16;100.00
22662;BME280;11497;52.222;21.246;2023-02-11T14:50:45;100740.66;;;4.31;100.00
22662;BME280;11497;52.222;21.246;2023-02-11T14:53:20;100737.22;;;4.20;100.00
22662;BME280;11497;52.222;21.246;2023-02-11T14:55:52;100729.44;;;4.22;100.00
22662;BME280;11497;52.222;21.246;2023-02-11T14:58:30;100744.13;;;4.27;100.00
22662;BME280;11497;52.222;21.246;2023-02-11T15:01:00;100730.31;;;4.22;100.00
22662;BME280;11497;52.222;21.246;2023-02-11T15:03:35;100731.09;;;4.33;100.00
22662;BME280;11497;52.222;21.246;2023-02-11T15:08:49;100703.53;;;4.23;100.00
22662;BME280;11497;52.222;21.246;2023-02-11T15:11:20;100729.41;;;4.31;100.00
22662;BME280;11497;52.222;21.246;2023-02-11T15:13:49;100725.09;;;4.28;100.00
22662;BME280;11497;52.222;21.246;2023-02-11T15:16:23;100732.88;;;4.33;100.00
22662;BME280;11497;52.222;21.246;2023-02-11T15:19:02;100728.56;;;4.27;100.00
22662;BME280;11497;52.222;21.246;2023-02-11T15:21:32;100752.75;;;4.29;100.00
22662;BME280;11497;52.222;21.246;2023-02-11T15:24:19;100754.47;;;4.27;100.00